Time;durP1;ratioP1;P1;durP2;ratioP2;P2;SDS_P1;SDS_P2;PMS_P1;PMS_P2;Temp;Humidity;BMP_temperature;BMP_pressure;BME280_temperature;BME280_humidity;BME280_pressure;Samples;Min_cycle;Max_cycle;Signal;HPM_P1;HPM_P2
2022/03/21 00:01:10;;;;;;;22.80;10.60;;;;;-1.30;99608.40;;;;111100;1247;41581;-66
2022/03/21 00:03:39;;;;;;;22.10;9.70;;;;;-1.40;99603.20;;;;111016;1247;41263;-65
2022/03/21 00:06:09;;;;;;;19.00;9.50;;;;;-1.40;99605.00;;;;111019;1248;41610;-67
2022/03/21 00:08:40;;;;;;;23.80;9.60;;;;;-1.50;99603.40;;;;110972;1247;41151;-65
2022/03/21 00:11:11;;;;;;;20.30;9.50;;;;;-1.50;99602.00;;;;111099;1247;41278;-65
2022/03/21 00:13:43;;;;;;;26.30;11.80;;;;;-1.52;99608.40;;;;111057;1248;41923;-64
2022/03/21 00:16:13;;;;;;;21.00;11.30;;;;;-1.58;99607.80;;;;110982;1248;41152;-65
2022/03/21 00:18:43;;;;;;;23.00;10.70;;;;;-1.60;99602.60;;;;111374;1245;41745;-67
2022/03/21 00:21:13;;;;;;;23.50;10.90;;;;;-1.60;99604.20;;;;111113;1246;41293;-66
2022/03/21 00:23:47;;;;;;;21.20;10.00;;;;;-1.60;99598.60;;;;111107;1247;41151;-66
2022/03/21 00:26:17;;;;;;;22.00;10.50;;;;;-1.60;99593.20;;;;111081;1247;41117;-65
2022/03/21 00:28:47;;;;;;;26.40;12.10;;;;;-1.62;99597.60;;;;111107;1247;42835;-65
2022/03/21 00:31:17;;;;;;;21.70;11.10;;;;;-1.60;99588.00;;;;111072;1247;40721;-66
2022/03/21 00:33:47;;;;;;;22.40;12.20;;;;;-1.68;99583.00;;;;111115;1247;41619;-67
2022/03/21 00:36:17;;;;;;;25.30;12.60;;;;;-1.70;99581.00;;;;111129;1248;41152;-65
2022/03/21 00:39:08;;;;;;;26.70;12.20;;;;;-1.70;99579.80;;;;111074;1247;41216;-65
2022/03/21 00:41:37;;;;;;;25.90;11.80;;;;;-1.70;99579.40;;;;111026;1247;41548;-64
2022/03/21 00:44:08;;;;;;;24.10;11.50;;;;;-1.70;99579.60;;;;110779;1250;41226;-64
2022/03/21 00:46:39;;;;;;;27.60;12.70;;;;;-1.70;99574.60;;;;110897;1249;41169;-64
2022/03/21 00:49:11;;;;;;;23.70;10.90;;;;;-1.70;99579.60;;;;110831;1249;41580;-64
2022/03/21 00:51:42;;;;;;;20.90;9.70;;;;;-1.78;99579.20;;;;111069;1247;41136;-65
2022/03/21 00:54:12;;;;;;;17.90;8.80;;;;;-1.80;99581.20;;;;111061;1248;41962;-65
2022/03/21 00:56:43;;;;;;;19.80;9.40;;;;;-1.80;99581.20;;;;111129;1247;41148;-64
2022/03/21 00:59:13;;;;;;;19.70;8.60;;;;;-1.88;99577.80;;;;110841;1248;41156;-65
2022/03/21 01:01:43;;;;;;;25.00;10.50;;;;;-1.90;99574.20;;;;111130;1247;41253;-65
2022/03/21 01:04:14;;;;;;;;;;;;;-1.90;99577.20;;;;111089;1247;41256;-67
2022/03/21 01:06:45;;;;;;;16.80;8.60;;;;;-1.90;99583.60;;;;111009;1248;42368;-66
2022/03/21 01:09:17;;;;;;;19.00;9.10;;;;;-1.94;99575.00;;;;110992;1247;41128;-65
2022/03/21 01:11:47;;;;;;;21.30;10.50;;;;;-2.00;99571.00;;;;111032;1247;41142;-64
2022/03/21 01:14:17;;;;;;;22.10;10.50;;;;;-2.00;99571.60;;;;111063;1249;41272;-65
2022/03/21 01:16:48;;;;;;;24.00;11.30;;;;;-2.00;99574.00;;;;111058;1247;41251;-64
2022/03/21 01:19:18;;;;;;;26.70;12.60;;;;;-2.00;99574.80;;;;111092;1247;41564;-65
2022/03/21 01:21:49;;;;;;;21.70;10.60;;;;;-2.10;99575.60;;;;111440;1244;41121;-66
2022/03/21 01:24:20;;;;;;;21.20;10.00;;;;;-2.10;99574.80;;;;111234;1245;41588;-65
2022/03/21 01:26:53;;;;;;;27.60;12.70;;;;;-2.10;99575.20;;;;111051;1247;41262;-66
2022/03/21 01:29:24;;;;;;;28.80;12.60;;;;;-2.10;99574.00;;;;110852;1249;41873;-65
2022/03/21 01:31:54;;;;;;;25.10;12.40;;;;;-2.10;99570.00;;;;111157;1246;41242;-66
2022/03/21 01:34:24;;;;;;;28.30;13.60;;;;;-2.20;99572.80;;;;111044;1247;41249;-65
2022/03/21 01:36:56;;;;;;;26.50;10.90;;;;;-2.20;99566.20;;;;111050;1247;41239;-66
2022/03/21 01:39:26;;;;;;;26.90;11.70;;;;;-2.12;99566.80;;;;111096;1247;41140;-66
2022/03/21 01:41:57;;;;;;;;;;;;;-2.10;99569.00;;;;111131;1246;42025;-66
2022/03/21 01:44:28;;;;;;;28.50;14.90;;;;;-2.10;99568.60;;;;111107;1247;41378;-65
2022/03/21 01:46:59;;;;;;;29.40;13.50;;;;;-2.10;99572.20;;;;111151;1247;41468;-64
2022/03/21 01:49:30;;;;;;;28.10;14.40;;;;;-2.10;99568.40;;;;111063;1247;41147;-64
2022/03/21 01:52:02;;;;;;;28.80;13.40;;;;;-2.20;99571.20;;;;111078;1247;41138;-65
2022/03/21 01:57:21;;;;;;;25.60;12.10;;;;;-2.20;99570.40;;;;111147;1245;41120;-66
2022/03/21 01:59:52;;;;;;;27.70;12.70;;;;;-2.20;99569.20;;;;111031;1247;42529;-65
2022/03/21 02:02:22;;;;;;;23.90;11.70;;;;;-2.20;99560.20;;;;111040;1249;41892;-66
2022/03/21 02:04:52;;;;;;;20.10;10.50;;;;;-2.20;99562.20;;;;111141;1247;41147;-66
2022/03/21 02:07:25;;;;;;;25.20;10.40;;;;;-2.22;99568.60;;;;111190;1247;41253;-66
2022/03/21 02:09:55;;;;;;;20.50;9.50;;;;;-2.30;99564.20;;;;111084;1247;41184;-66
2022/03/21 02:12:25;;;;;;;20.70;10.10;;;;;-2.30;99558.00;;;;111040;1245;41254;-67
2022/03/21 02:14:56;;;;;;;27.90;12.70;;;;;-2.40;99556.00;;;;111041;1247;42285;-68
2022/03/21 02:17:30;;;;;;;30.80;14.90;;;;;-2.40;99560.00;;;;111049;1247;41144;-67
2022/03/21 02:20:04;;;;;;;30.90;12.20;;;;;-2.40;99558.20;;;;111145;1247;41967;-66
2022/03/21 02:22:37;;;;;;;27.40;11.80;;;;;-2.50;99554.00;;;;111124;1248;42159;-64
2022/03/21 02:25:21;;;;;;;25.40;11.60;;;;;-2.50;99555.20;;;;111254;1247;41153;-65
2022/03/21 02:27:52;;;;;;;18.90;10.00;;;;;-2.50;99553.00;;;;111163;1245;42416;-64
2022/03/21 02:30:22;;;;;;;20.30;9.20;;;;;-2.52;99555.20;;;;111268;1244;42573;-65
2022/03/21 02:32:52;;;;;;;21.20;9.80;;;;;-2.50;99552.80;;;;111149;1246;41142;-65
2022/03/21 02:35:23;;;;;;;28.90;14.10;;;;;-2.50;99553.60;;;;111111;1246;41747;-66
2022/03/21 02:37:56;;;;;;;23.20;10.80;;;;;-2.50;99552.60;;;;111162;1247;42296;-66
2022/03/21 02:40:27;;;;;;;28.30;12.30;;;;;-2.60;99551.20;;;;111068;1248;41351;-66
2022/03/21 02:42:58;;;;;;;22.90;11.70;;;;;-2.66;99559.80;;;;111243;1246;41604;-66
2022/03/21 02:45:28;;;;;;;21.70;10.20;;;;;-2.76;99553.60;;;;111110;1247;41354;-66
2022/03/21 02:47:58;;;;;;;22.60;10.10;;;;;-2.80;99562.40;;;;111330;1245;41426;-65
2022/03/21 02:50:39;;;;;;;19.10;10.00;;;;;-2.90;99567.60;;;;111097;1247;42154;-65
2022/03/21 02:53:11;;;;;;;22.60;9.30;;;;;-3.00;99565.40;;;;111127;1248;41975;-64
2022/03/21 02:55:42;;;;;;;19.60;9.40;;;;;-3.10;99571.20;;;;111137;1246;41364;-64
2022/03/21 02:58:12;;;;;;;20.30;9.10;;;;;-3.10;99574.20;;;;111131;1247;41152;-64
2022/03/21 03:00:43;;;;;;;22.10;9.30;;;;;-3.20;99578.20;;;;111080;1247;42036;-65
2022/03/21 03:03:13;;;;;;;20.30;8.90;;;;;-3.20;99579.00;;;;111012;1249;41200;-65
2022/03/21 03:05:44;;;;;;;17.30;8.90;;;;;-3.20;99575.20;;;;111110;1247;41174;-65
2022/03/21 03:08:15;;;;;;;18.00;8.70;;;;;-3.30;99578.80;;;;111131;1247;41213;-65
2022/03/21 03:10:45;;;;;;;22.10;9.90;;;;;-3.30;99577.60;;;;111136;1247;41142;-65
2022/03/21 03:13:15;;;;;;;22.10;10.10;;;;;-3.40;99577.60;;;;111070;1247;41577;-66
2022/03/21 03:15:47;;;;;;;19.30;9.60;;;;;-3.40;99576.60;;;;111090;1247;41733;-66
2022/03/21 03:18:17;;;;;;;23.80;9.40;;;;;-3.40;99580.20;;;;111145;1247;41131;-65
2022/03/21 03:20:51;;;;;;;18.60;9.80;;;;;-3.42;99573.20;;;;111123;1246;41975;-64
2022/03/21 03:23:23;;;;;;;21.60;10.00;;;;;-3.48;99575.00;;;;111113;1247;42344;-66
2022/03/21 03:26:04;;;;;;;20.10;9.20;;;;;-3.50;99571.20;;;;110940;1249;41134;-67
2022/03/21 03:28:34;;;;;;;16.00;8.50;;;;;-3.60;99573.60;;;;110895;1247;41669;-66
2022/03/21 03:31:20;;;;;;;17.70;8.90;;;;;-3.60;99581.20;;;;111038;1247;41921;-64
2022/03/21 03:33:50;;;;;;;19.30;9.40;;;;;-3.62;99574.60;;;;111105;1247;41762;-65
2022/03/21 03:36:21;;;;;;;17.70;9.30;;;;;-3.70;99578.60;;;;111063;1247;41724;-65
2022/03/21 03:38:52;;;;;;;20.10;9.50;;;;;-3.70;99572.60;;;;111077;1247;41946;-66
2022/03/21 03:41:23;;;;;;;24.40;10.50;;;;;-3.70;99574.60;;;;111078;1247;41257;-67
2022/03/21 03:43:54;;;;;;;24.30;10.40;;;;;-3.70;99578.40;;;;111011;1247;42105;-65
2022/03/21 03:46:24;;;;;;;24.60;11.20;;;;;-3.80;99576.20;;;;110853;1248;42737;-65
2022/03/21 03:48:55;;;;;;;23.10;11.70;;;;;-3.80;99579.00;;;;111192;1246;41935;-66
2022/03/21 03:51:25;;;;;;;26.00;11.30;;;;;-3.80;99585.20;;;;111135;1245;41153;-65
2022/03/21 03:53:55;;;;;;;23.60;11.10;;;;;-3.74;99581.60;;;;111066;1247;41144;-65
2022/03/21 03:56:26;;;;;;;26.70;12.50;;;;;-3.70;99582.20;;;;110862;1250;41803;-64
2022/03/21 03:58:56;;;;;;;27.90;12.70;;;;;-3.60;99578.40;;;;111198;1247;41249;-66
2022/03/21 04:01:26;;;;;;;26.90;13.30;;;;;-3.58;99572.80;;;;111334;1245;41246;-65
2022/03/21 04:03:59;;;;;;;26.90;12.70;;;;;-3.60;99571.80;;;;111047;1247;41251;-65
2022/03/21 04:06:29;;;;;;;29.30;12.60;;;;;-3.50;99575.00;;;;111079;1247;41266;-66
2022/03/21 04:08:59;;;;;;;25.70;11.70;;;;;-3.50;99577.40;;;;111073;1247;41714;-65
2022/03/21 04:11:29;;;;;;;28.40;13.20;;;;;-3.46;99574.00;;;;110875;1247;41521;-64
2022/03/21 04:13:59;;;;;;;36.70;16.50;;;;;-3.40;99571.60;;;;110999;1249;41266;-65
2022/03/21 04:16:29;;;;;;;29.80;13.60;;;;;-3.34;99566.60;;;;111125;1247;41130;-67
2022/03/21 04:18:59;;;;;;;31.70;14.00;;;;;-3.30;99572.20;;;;111134;1246;41568;-68
2022/03/21 04:21:30;;;;;;;37.10;17.40;;;;;-3.22;99574.60;;;;111146;1248;41121;-67
2022/03/21 04:24:00;;;;;;;27.80;13.40;;;;;-3.20;99575.40;;;;111170;1247;41130;-65
2022/03/21 04:26:30;;;;;;;25.90;13.60;;;;;-3.30;99573.00;;;;111076;1247;41149;-65
2022/03/21 04:29:04;;;;;;;24.60;13.00;;;;;-3.30;99575.40;;;;110828;1246;41172;-64
2022/03/21 04:31:34;;;;;;;24.40;11.70;;;;;-3.30;99571.80;;;;111434;1244;41182;-65
2022/03/21 04:34:04;;;;;;;27.40;13.30;;;;;-3.32;99565.40;;;;111011;1247;41578;-64
2022/03/21 04:36:34;;;;;;;27.00;12.80;;;;;-3.40;99574.00;;;;111101;1247;41146;-65
2022/03/21 04:39:03;;;;;;;26.80;12.10;;;;;-3.40;99575.20;;;;111339;1247;41947;-64
2022/03/21 04:41:33;;;;;;;25.80;12.00;;;;;-3.40;99568.20;;;;111437;1246;41388;-64
2022/03/21 04:44:03;;;;;;;29.70;14.20;;;;;-3.40;99567.60;;;;111068;1247;41504;-64
2022/03/21 04:46:33;;;;;;;39.00;15.20;;;;;-3.44;99577.00;;;;111133;1246;41248;-63
2022/03/21 04:49:02;;;;;;;32.70;16.00;;;;;-3.50;99575.80;;;;111133;1247;41142;-65
2022/03/21 04:51:32;;;;;;;34.40;17.10;;;;;-3.50;99578.20;;;;111256;1246;41148;-65
2022/03/21 04:54:02;;;;;;;34.40;16.20;;;;;-3.50;99575.40;;;;111051;1248;41796;-65
2022/03/21 04:56:31;;;;;;;34.20;14.30;;;;;-3.50;99574.00;;;;111002;1248;41249;-65
2022/03/21 04:59:01;;;;;;;31.30;14.70;;;;;-3.48;99575.80;;;;111145;1247;41746;-65
2022/03/21 05:01:31;;;;;;;29.50;14.30;;;;;-3.40;99586.40;;;;110950;1247;41153;-66
2022/03/21 05:04:00;;;;;;;31.10;15.30;;;;;-3.36;99576.80;;;;111047;1248;41178;-66
2022/03/21 05:06:29;;;;;;;29.60;14.60;;;;;-3.30;99580.20;;;;111100;1247;41498;-65
2022/03/21 05:09:03;;;;;;;33.10;16.30;;;;;-3.20;99582.80;;;;111185;1247;41251;-65
2022/03/21 05:11:32;;;;;;;38.40;17.60;;;;;-3.20;99576.20;;;;111381;1246;41121;-65
2022/03/21 05:14:02;;;;;;;30.70;15.00;;;;;-3.10;99585.00;;;;111067;1247;42045;-65
2022/03/21 05:16:32;;;;;;;28.80;15.50;;;;;-3.08;99583.80;;;;110854;1248;41263;-65
2022/03/21 05:19:03;;;;;;;26.60;14.40;;;;;-2.96;99575.60;;;;111041;1247;41251;-65
2022/03/21 05:21:32;;;;;;;28.90;14.80;;;;;-2.80;99580.20;;;;111110;1247;41255;-66
2022/03/21 05:32:27;;;;;;;39.30;18.00;;;;;-2.30;99570.20;;;;110907;1249;41251;-65
2022/03/21 05:37:45;;;;;;;56.10;24.20;;;;;-2.00;99573.80;;;;110872;1247;41165;-64
2022/03/21 05:43:04;;;;;;;34.10;17.90;;;;;-1.70;99570.40;;;;111081;1247;41158;-65
2022/03/21 05:45:33;;;;;;;36.30;19.00;;;;;-1.52;99572.20;;;;110976;1247;41624;-65
2022/03/21 05:50:51;;;;;;;34.20;16.80;;;;;-1.18;99571.60;;;;111108;1248;41416;-65
2022/03/21 05:53:21;;;;;;;30.30;13.70;;;;;-1.00;99579.80;;;;111093;1247;42539;-66
2022/03/21 05:55:50;;;;;;;25.60;13.50;;;;;-0.80;99582.60;;;;111000;1248;41581;-64
2022/03/21 05:58:19;;;;;;;28.00;13.30;;;;;-0.60;99590.60;;;;111068;1247;41128;-65
2022/03/21 06:00:48;;;;;;;23.40;11.40;;;;;-0.50;99584.40;;;;111046;1248;41606;-66
2022/03/21 06:03:18;;;;;;;24.90;11.90;;;;;-0.40;99582.40;;;;111037;1247;41608;-65
2022/03/21 06:05:49;;;;;;;30.60;14.00;;;;;-0.20;99582.20;;;;111001;1247;41595;-66
2022/03/21 06:08:20;;;;;;;30.10;12.80;;;;;-0.10;99585.60;;;;111107;1247;41154;-67
2022/03/21 06:11:03;;;;;;;28.90;14.50;;;;;0.00;99583.60;;;;111059;1247;41621;-66
2022/03/21 06:13:34;;;;;;;29.60;14.00;;;;;0.18;99584.40;;;;111158;1245;42044;-65
2022/03/21 06:16:07;;;;;;;27.40;12.90;;;;;0.30;99587.80;;;;111102;1247;41127;-65
2022/03/21 06:18:37;;;;;;;35.80;14.80;;;;;0.52;99581.80;;;;111096;1247;41868;-65
2022/03/21 06:21:07;;;;;;;25.30;12.80;;;;;0.70;99584.00;;;;111172;1247;41149;-65
2022/03/21 06:23:37;;;;;;;27.00;11.60;;;;;0.80;99591.00;;;;111118;1247;41527;-65
2022/03/21 06:26:07;;;;;;;27.70;12.90;;;;;0.96;99585.60;;;;111110;1247;41342;-66
2022/03/21 06:28:37;;;;;;;28.80;13.20;;;;;1.16;99583.60;;;;111066;1247;41603;-65
2022/03/21 06:31:07;;;;;;;33.80;11.50;;;;;1.30;99580.60;;;;111117;1246;41124;-64
2022/03/21 06:33:36;;;;;;;29.40;11.30;;;;;1.54;99576.20;;;;111029;1249;41900;-64
2022/03/21 06:36:06;;;;;;;21.10;10.60;;;;;1.82;99572.80;;;;111041;1248;41632;-64
2022/03/21 06:38:35;;;;;;;24.50;11.80;;;;;2.16;99568.40;;;;111152;1247;41613;-64
2022/03/21 06:41:06;;;;;;;23.00;9.70;;;;;2.40;99565.60;;;;111071;1247;41302;-64
2022/03/21 06:43:35;;;;;;;28.50;14.70;;;;;2.68;99562.40;;;;111094;1247;42111;-66
2022/03/21 06:46:05;;;;;;;22.40;10.90;;;;;2.80;99563.60;;;;111060;1248;41622;-67
2022/03/21 06:48:35;;;;;;;25.50;11.60;;;;;3.00;99567.80;;;;111060;1248;41141;-65
2022/03/21 06:51:04;;;;;;;28.00;13.20;;;;;3.30;99558.60;;;;110857;1249;41140;-64
2022/03/21 06:53:33;;;;;;;24.90;12.90;;;;;3.42;99568.00;;;;111046;1248;41154;-64
2022/03/21 06:56:03;;;;;;;25.80;13.10;;;;;3.58;99557.40;;;;111063;1247;42380;-65
2022/03/21 06:58:33;;;;;;;30.30;13.70;;;;;3.70;99559.00;;;;111124;1247;42096;-64
2022/03/21 07:01:02;;;;;;;36.20;14.30;;;;;3.72;99558.00;;;;111052;1247;41146;-64
2022/03/21 07:03:32;;;;;;;28.80;13.40;;;;;3.88;99549.80;;;;111120;1247;41250;-65
2022/03/21 07:06:01;;;;;;;25.20;12.70;;;;;3.90;99554.20;;;;110998;1248;41261;-66
2022/03/21 07:08:31;;;;;;;21.70;10.70;;;;;4.10;99551.40;;;;111095;1247;41255;-65
2022/03/21 07:11:00;;;;;;;21.40;9.60;;;;;4.30;99551.80;;;;110974;1248;41136;-65
2022/03/21 07:13:30;;;;;;;21.60;10.40;;;;;4.68;99549.80;;;;111106;1247;41185;-65
2022/03/21 07:15:59;;;;;;;22.00;10.20;;;;;4.98;99549.60;;;;110983;1248;41151;-65
2022/03/21 07:18:28;;;;;;;25.10;12.80;;;;;5.30;99550.60;;;;111103;1248;41429;-66
2022/03/21 07:20:58;;;;;;;22.60;10.90;;;;;5.50;99549.80;;;;111058;1248;41534;-63
2022/03/21 07:23:27;;;;;;;26.60;13.00;;;;;5.56;99547.60;;;;111071;1247;41153;-65
2022/03/21 07:25:56;;;;;;;31.90;13.40;;;;;5.70;99549.60;;;;111081;1249;41904;-65
2022/03/21 07:28:26;;;;;;;28.40;13.30;;;;;5.68;99545.20;;;;111005;1248;41475;-64
2022/03/21 07:31:16;;;;;;;32.90;13.20;;;;;5.88;99544.80;;;;109939;1249;1450182;-65
2022/03/21 07:33:53;;;;;;;35.30;15.20;;;;;6.08;99537.60;;;;111065;1247;41530;-65
2022/03/21 07:36:29;;;;;;;32.10;15.10;;;;;6.22;99534.60;;;;110984;1247;42645;-65
2022/03/21 07:38:58;;;;;;;;;;;;;6.40;99536.20;;;;111043;1247;41715;-65
2022/03/21 07:41:28;;;;;;;25.40;12.00;;;;;6.40;99529.20;;;;111066;1247;41641;-66
2022/03/21 07:43:58;;;;;;;25.70;11.40;;;;;6.60;99535.20;;;;111076;1247;41146;-65
2022/03/21 07:49:15;;;;;;;27.20;10.70;;;;;7.10;99533.60;;;;111032;1247;41148;-66
2022/03/21 07:51:44;;;;;;;27.40;12.40;;;;;7.32;99530.00;;;;110998;1248;41133;-67
2022/03/21 07:54:14;;;;;;;22.10;10.40;;;;;7.56;99527.20;;;;110780;1249;41149;-65
2022/03/21 07:56:43;;;;;;;23.60;11.20;;;;;7.70;99527.00;;;;110854;1250;41252;-65
2022/03/21 07:59:15;;;;;;;22.90;12.30;;;;;7.96;99523.40;;;;111092;1247;41127;-64
2022/03/21 08:01:45;;;;;;;21.70;10.80;;;;;8.04;99522.80;;;;111032;1247;41179;-65
2022/03/21 08:04:17;;;;;;;23.20;11.20;;;;;8.28;99516.00;;;;111047;1247;41199;-66
2022/03/21 08:06:45;;;;;;;25.40;11.70;;;;;8.52;99517.00;;;;110684;1248;41157;-66
2022/03/21 08:09:15;;;;;;;21.40;10.40;;;;;8.76;99513.80;;;;111056;1247;41260;-64
2022/03/21 08:11:45;;;;;;;21.40;10.00;;;;;9.00;99518.00;;;;110819;1250;42633;-66
2022/03/21 08:14:15;;;;;;;23.50;10.70;;;;;9.30;99511.80;;;;110815;1249;41208;-67
2022/03/21 08:16:44;;;;;;;26.40;12.90;;;;;9.50;99503.80;;;;110876;1248;42293;-66
2022/03/21 08:19:13;;;;;;;23.10;11.60;;;;;9.62;99503.40;;;;110837;1248;41268;-65
2022/03/21 08:21:43;;;;;;;26.00;11.50;;;;;9.84;99512.00;;;;110764;1249;41131;-65
2022/03/21 08:24:12;;;;;;;24.70;10.90;;;;;10.20;99504.20;;;;110790;1250;41856;-66
2022/03/21 08:26:43;;;;;;;20.30;9.90;;;;;10.40;99493.20;;;;110685;1247;41203;-66
2022/03/21 08:29:15;;;;;;;21.10;9.20;;;;;10.70;99495.20;;;;111099;1248;41374;-68
2022/03/21 08:31:44;;;;;;;20.60;10.40;;;;;11.06;99485.80;;;;111084;1247;41195;-66
2022/03/21 08:34:14;;;;;;;21.50;8.60;;;;;11.70;99486.20;;;;110896;1247;41938;-66
2022/03/21 08:36:45;;;;;;;20.10;8.70;;;;;12.14;99475.00;;;;110860;1250;41602;-67
2022/03/21 08:39:18;;;;;;;22.00;9.30;;;;;13.38;99468.40;;;;111059;1249;41133;-67
2022/03/21 08:41:52;;;;;;;18.40;9.50;;;;;14.74;99451.00;;;;110918;1250;41648;-66
2022/03/21 08:44:22;;;;;;;18.30;7.90;;;;;16.26;99449.80;;;;111128;1247;41159;-69
2022/03/21 08:46:51;;;;;;;21.60;8.70;;;;;17.92;99437.80;;;;110846;1248;42373;-65
2022/03/21 08:49:24;;;;;;;18.40;9.10;;;;;19.08;99433.80;;;;111064;1248;41146;-68
2022/03/21 08:52:01;;;;;;;17.50;8.40;;;;;19.96;99430.80;;;;110860;1250;41186;-67
2022/03/21 08:54:30;;;;;;;15.80;7.70;;;;;21.10;99427.40;;;;110942;1249;41706;-67
2022/03/21 08:57:00;;;;;;;16.70;7.90;;;;;21.90;99423.20;;;;110840;1250;41190;-68
2022/03/21 08:59:29;;;;;;;17.40;7.90;;;;;22.52;99415.60;;;;110925;1249;41628;-67
2022/03/21 09:01:58;;;;;;;18.20;7.80;;;;;23.12;99419.60;;;;111128;1247;41248;-69
2022/03/21 09:04:28;;;;;;;15.10;7.50;;;;;23.54;99415.80;;;;111123;1247;41675;-69
2022/03/21 09:06:57;;;;;;;14.30;7.90;;;;;23.50;99403.80;;;;111047;1249;41967;-68
2022/03/21 09:09:27;;;;;;;17.10;7.80;;;;;23.80;99404.00;;;;111090;1247;42337;-69
2022/03/21 09:11:56;;;;;;;14.10;7.10;;;;;23.50;99401.40;;;;111114;1247;42198;-66
2022/03/21 09:14:25;;;;;;;14.70;7.30;;;;;23.50;99403.00;;;;110998;1248;41488;-67
2022/03/21 09:16:56;;;;;;;12.10;5.90;;;;;24.54;99401.40;;;;111054;1249;41245;-65
2022/03/21 09:19:25;;;;;;;13.00;6.50;;;;;25.56;99406.60;;;;111040;1249;41245;-65
2022/03/21 09:21:58;;;;;;;12.50;6.10;;;;;26.66;99404.80;;;;111071;1247;41608;-68
2022/03/21 09:24:28;;;;;;;14.10;6.80;;;;;27.84;99396.40;;;;111052;1248;41198;-68
2022/03/21 09:26:57;;;;;;;12.30;6.20;;;;;27.96;99405.00;;;;110958;1249;42084;-69
2022/03/21 09:29:26;;;;;;;12.00;5.40;;;;;28.62;99402.60;;;;111048;1248;41599;-69
2022/03/21 09:31:55;;;;;;;12.20;6.00;;;;;29.62;99391.80;;;;111030;1248;41143;-70
2022/03/21 09:34:25;;;;;;;16.00;5.70;;;;;30.62;99390.40;;;;110859;1250;42019;-69
2022/03/21 09:36:55;;;;;;;12.90;6.20;;;;;31.42;99388.40;;;;111223;1245;41137;-71
2022/03/21 09:39:23;;;;;;;11.80;5.50;;;;;32.20;99386.40;;;;111249;1247;41254;-68
2022/03/21 09:41:52;;;;;;;12.60;5.70;;;;;32.80;99377.80;;;;111185;1249;41147;-68
2022/03/21 09:44:21;;;;;;;13.30;6.30;;;;;33.00;99372.60;;;;111296;1247;41309;-67
2022/03/21 09:46:51;;;;;;;11.80;5.30;;;;;33.14;99368.20;;;;111255;1247;41705;-68
2022/03/21 09:49:23;;;;;;;10.80;5.00;;;;;33.30;99366.20;;;;111260;1246;41393;-68
2022/03/21 09:51:54;;;;;;;10.80;5.50;;;;;33.58;99367.40;;;;111471;1246;41587;-68
2022/03/21 09:54:23;;;;;;;13.10;6.30;;;;;33.80;99364.60;;;;111008;1250;41137;-68
2022/03/21 09:56:52;;;;;;;12.60;5.80;;;;;32.92;99356.40;;;;111180;1248;41146;-68
2022/03/21 09:59:23;;;;;;;12.90;5.80;;;;;32.52;99358.20;;;;111187;1245;41612;-69
2022/03/21 10:01:52;;;;;;;13.10;6.60;;;;;32.28;99358.00;;;;111151;1248;41979;-71
2022/03/21 10:04:21;;;;;;;13.50;6.20;;;;;30.84;99367.00;;;;111243;1247;41818;-70
2022/03/21 10:06:58;;;;;;;10.50;5.40;;;;;30.18;99356.60;;;;111107;1247;41616;-68
2022/03/21 10:09:28;;;;;;;10.30;4.50;;;;;28.64;99352.00;;;;111193;1249;41715;-68
2022/03/21 10:11:58;;;;;;;10.70;5.00;;;;;29.98;99344.40;;;;111201;1246;41155;-68
2022/03/21 10:14:36;;;;;;;13.10;5.70;;;;;31.52;99341.60;;;;111122;1248;41556;-68
2022/03/21 10:17:09;;;;;;;11.90;6.10;;;;;32.30;99329.00;;;;111228;1247;41140;-68
2022/03/21 10:19:43;;;;;;;14.40;6.60;;;;;31.48;99331.80;;;;111237;1247;41484;-67
2022/03/21 10:22:14;;;;;;;12.40;5.80;;;;;30.22;99332.60;;;;111184;1245;41408;-67
2022/03/21 10:24:45;;;;;;;10.10;5.00;;;;;30.32;99328.00;;;;111183;1247;41558;-68
2022/03/21 10:27:29;;;;;;;9.50;4.20;;;;;30.54;99322.80;;;;111087;1250;41770;-68
2022/03/21 10:30:08;;;;;;;11.20;4.50;;;;;32.08;99321.40;;;;111312;1245;41627;-67
2022/03/21 10:32:54;;;;;;;10.20;4.50;;;;;33.74;99321.60;;;;111276;1245;41139;-68
2022/03/21 10:35:26;;;;;;;9.70;4.30;;;;;33.24;99314.80;;;;111138;1250;41220;-71
2022/03/21 10:38:04;;;;;;;8.80;3.90;;;;;34.40;99318.20;;;;111095;1248;41136;-67
2022/03/21 10:40:54;;;;;;;10.00;4.10;;;;;35.76;99316.60;;;;110987;1249;42608;-70
2022/03/21 10:43:25;;;;;;;10.90;4.60;;;;;36.38;99309.60;;;;111340;1247;41124;-68
2022/03/21 10:45:54;;;;;;;12.30;4.90;;;;;36.92;99307.20;;;;111241;1247;41184;-70
2022/03/21 10:48:32;;;;;;;8.10;3.90;;;;;37.10;99304.60;;;;111239;1248;41348;-69
2022/03/21 10:51:04;;;;;;;8.50;4.10;;;;;37.34;99298.00;;;;111156;1248;43335;-68
2022/03/21 10:53:41;;;;;;;8.00;3.50;;;;;38.22;99300.40;;;;111188;1248;41659;-69
2022/03/21 10:56:11;;;;;;;8.80;3.50;;;;;39.26;99293.80;;;;111246;1246;41137;-69
2022/03/21 10:58:47;;;;;;;7.70;3.10;;;;;39.80;99295.80;;;;111219;1247;41148;-69
2022/03/21 11:01:24;;;;;;;8.70;3.90;;;;;40.22;99288.00;;;;111232;1248;41794;-71
2022/03/21 11:03:57;;;;;;;8.30;3.50;;;;;40.32;99281.00;;;;111221;1247;42220;-70
2022/03/21 11:06:29;;;;;;;7.70;3.30;;;;;40.46;99279.00;;;;111149;1249;41717;-69
2022/03/21 11:09:00;;;;;;;8.60;3.50;;;;;40.52;99272.40;;;;111121;1248;42361;-70
2022/03/21 11:11:29;;;;;;;9.30;3.40;;;;;40.24;99268.60;;;;111184;1247;41114;-70
2022/03/21 11:13:59;;;;;;;8.70;3.60;;;;;40.70;99270.00;;;;111013;1249;41905;-70
2022/03/21 11:16:28;;;;;;;9.10;3.30;;;;;41.00;99263.40;;;;111177;1248;41409;-68
2022/03/21 11:18:59;;;;;;;7.60;3.40;;;;;41.40;99260.80;;;;111153;1248;41228;-69
2022/03/21 11:21:29;;;;;;;7.50;3.10;;;;;41.70;99253.80;;;;111202;1248;41390;-68
2022/03/21 11:23:59;;;;;;;8.10;3.30;;;;;41.92;99248.00;;;;111256;1248;41184;-69
2022/03/21 11:27:15;;;;;;;8.20;3.70;;;;;41.60;99248.20;;;;111007;1248;41168;-69
2022/03/21 11:30:02;;;;;;;7.80;3.30;;;;;40.74;99243.00;;;;110946;1248;41169;-70
2022/03/21 11:32:37;;;;;;;8.20;3.30;;;;;40.26;99241.40;;;;111218;1247;41159;-71
2022/03/21 11:35:11;;;;;;;7.70;3.00;;;;;39.92;99239.20;;;;111208;1247;42351;-71
2022/03/21 11:37:42;;;;;;;8.10;3.40;;;;;40.00;99236.80;;;;111171;1247;42413;-71
2022/03/21 11:40:35;;;;;;;7.70;3.30;;;;;39.80;99234.20;;;;111183;1248;41780;-69
2022/03/21 11:43:19;;;;;;;8.80;3.80;;;;;39.30;99225.80;;;;111228;1247;41270;-70
2022/03/21 11:45:54;;;;;;;8.20;3.50;;;;;38.76;99230.80;;;;111234;1248;41425;-71
2022/03/21 11:48:24;;;;;;;9.00;3.60;;;;;38.40;99222.20;;;;111073;1248;41676;-70
2022/03/21 11:50:56;;;;;;;8.40;3.50;;;;;38.50;99224.00;;;;111220;1247;42302;-70
2022/03/21 11:53:33;;;;;;;7.10;3.10;;;;;38.52;99222.20;;;;111203;1248;41288;-71
2022/03/21 11:56:02;;;;;;;8.60;3.40;;;;;38.32;99221.80;;;;111129;1247;41180;-71
2022/03/21 11:58:39;;;;;;;8.50;3.60;;;;;38.40;99214.40;;;;110905;1248;41130;-71
2022/03/21 12:01:13;;;;;;;8.70;3.90;;;;;38.62;99206.80;;;;111240;1248;42368;-69
2022/03/21 12:03:43;;;;;;;8.00;3.30;;;;;37.54;99210.00;;;;110885;1249;41155;-69
2022/03/21 12:06:30;;;;;;;9.50;3.80;;;;;37.00;99201.80;;;;111147;1249;41166;-69
2022/03/21 12:09:09;;;;;;;7.60;3.20;;;;;37.20;99197.00;;;;111144;1249;41382;-68
2022/03/21 12:11:38;;;;;;;8.20;3.40;;;;;37.36;99196.00;;;;111249;1249;41900;-69
2022/03/21 12:14:23;;;;;;;8.30;3.50;;;;;37.10;99191.20;;;;111207;1248;41146;-69
2022/03/21 12:17:01;;;;;;;8.50;3.50;;;;;36.46;99182.80;;;;110924;1250;41261;-68
2022/03/21 12:19:45;;;;;;;8.20;3.60;;;;;36.10;99184.00;;;;111216;1247;41132;-69
2022/03/21 12:22:36;;;;;;;8.50;3.70;;;;;35.20;99185.20;;;;111247;1248;41141;-69
2022/03/21 12:25:08;;;;;;;8.80;4.10;;;;;34.04;99182.80;;;;111202;1248;41194;-69
2022/03/21 12:27:48;;;;;;;9.60;4.10;;;;;31.68;99177.40;;;;111208;1247;42124;-69
2022/03/21 12:30:20;;;;;;;10.40;3.80;;;;;30.84;99178.00;;;;111229;1248;41414;-69
2022/03/21 12:32:55;;;;;;;10.70;3.80;;;;;30.26;99178.40;;;;111234;1248;41131;-71
2022/03/21 12:35:40;;;;;;;9.40;3.80;;;;;29.72;99174.40;;;;111167;1248;41150;-69
2022/03/21 12:38:10;;;;;;;8.70;4.00;;;;;29.50;99177.60;;;;111163;1247;41267;-70
2022/03/21 12:40:52;;;;;;;10.00;4.20;;;;;28.88;99173.00;;;;111166;1248;41141;-71
2022/03/21 12:43:27;;;;;;;10.60;4.10;;;;;28.34;99169.60;;;;111235;1247;41194;-69